Time;durP1;ratioP1;P1;durP2;ratioP2;P2;SDS_P1;SDS_P2;PMS_P1;PMS_P2;Temp;Humidity;BMP_temperature;BMP_pressure;BME280_temperature;BME280_humidity;BME280_pressure;Samples;Min_cycle;Max_cycle;Signal;HPM_P1;HPM_P2
2023/04/09 00:01:53;;;;;;;6.50;5.90;;;;;;;7.30;100.00;99309.47;4173276;28;20208;-47
2023/04/09 00:03:54;;;;;;;8.18;7.47;;;;;;;7.30;100.00;99314.91;4164824;28;20637;-48
2023/04/09 00:05:56;;;;;;;6.82;6.22;;;;;;;7.27;100.00;99315.31;4160097;28;20467;-49
2023/04/09 00:07:58;;;;;;;6.88;6.38;;;;;;;7.24;100.00;99307.59;4169040;28;20300;-48
2023/04/09 00:10:00;;;;;;;8.02;6.45;;;;;;;7.24;100.00;99307.59;4185424;28;20202;-47
2023/04/09 00:12:02;;;;;;;6.60;6.10;;;;;;;7.11;100.00;99310.31;4187364;28;20321;-47
2023/04/09 00:14:04;;;;;;;7.40;6.80;;;;;;;7.15;100.00;99311.56;4175090;28;20227;-47
2023/04/09 00:16:06;;;;;;;6.68;5.50;;;;;;;7.03;100.00;99314.06;4173790;28;20236;-47
2023/04/09 00:18:08;;;;;;;6.53;6.03;;;;;;;7.02;100.00;99311.56;4168152;28;20196;-47
2023/04/09 00:20:10;;;;;;;6.00;5.55;;;;;;;6.93;100.00;99312.78;4170391;28;20641;-47
2023/04/09 00:22:12;;;;;;;7.72;7.03;;;;;;;6.97;100.00;99308.63;4168178;28;20211;-47
2023/04/09 00:24:14;;;;;;;6.30;5.70;;;;;;;6.84;100.00;99311.31;4159342;28;20568;-47
2023/04/09 00:26:15;;;;;;;7.15;6.60;;;;;;;6.83;100.00;99304.22;4167339;28;20224;-47
2023/04/09 00:28:17;;;;;;;7.50;6.90;;;;;;;6.77;100.00;99311.28;4168462;28;20255;-48
2023/04/09 00:30:19;;;;;;;6.38;5.78;;;;;;;6.73;100.00;99311.91;4166721;28;20266;-47
2023/04/09 00:32:21;;;;;;;8.27;7.57;;;;;;;6.79;100.00;99311.94;4169074;28;20204;-48
2023/04/09 00:34:23;;;;;;;7.22;6.72;;;;;;;6.80;100.00;99307.31;4176428;28;20208;-47
2023/04/09 00:36:25;;;;;;;6.82;6.25;;;;;;;6.81;100.00;99306.28;4171278;28;20307;-47
2023/04/09 00:38:28;;;;;;;7.40;6.80;;;;;;;6.64;100.00;99307.72;4176488;28;20208;-47
2023/04/09 00:40:30;;;;;;;6.75;6.15;;;;;;;6.76;100.00;99300.66;4193407;28;20258;-47
2023/04/09 00:42:33;;;;;;;7.65;7.15;;;;;;;6.80;100.00;99302.75;4160708;28;20208;-47
2023/04/09 00:44:34;;;;;;;6.60;6.00;;;;;;;6.84;100.00;99305.88;4192565;28;20287;-48
2023/04/09 00:46:36;;;;;;;6.72;6.22;;;;;;;6.88;100.00;99309.88;4151989;28;20268;-47
2023/04/09 00:48:38;;;;;;;6.53;5.35;;;;;;;6.87;100.00;99305.44;4176505;28;20212;-47
2023/04/09 00:50:41;;;;;;;7.28;6.68;;;;;;;6.93;100.00;99310.91;4175881;28;20240;-47
2023/04/09 00:52:43;;;;;;;7.57;6.93;;;;;;;6.85;100.00;99304.84;4168266;28;20243;-47
2023/04/09 00:54:44;;;;;;;6.78;6.28;;;;;;;6.87;100.00;99303.59;4172087;28;20291;-48
2023/04/09 00:56:46;;;;;;;7.38;6.68;;;;;;;6.87;100.00;99302.72;4171275;28;20223;-48
2023/04/09 00:58:48;;;;;;;7.68;7.07;;;;;;;6.86;100.00;99301.91;4172727;28;20200;-47
2023/04/09 01:00:50;;;;;;;8.40;7.75;;;;;;;6.88;100.00;99299.00;4171087;28;20212;-49
2023/04/09 01:02:54;;;;;;;6.75;6.25;;;;;;;6.88;100.00;99299.00;4163280;28;20213;-47
2023/04/09 01:04:56;;;;;;;7.55;6.63;;;;;;;6.88;100.00;99302.53;4155983;28;20236;-47
2023/04/09 01:07:06;;;;;;;7.32;6.82;;;;;;;6.83;100.00;99301.50;4188273;28;20223;-47
2023/04/09 01:09:35;;;;;;;7.32;6.72;;;;;;;6.79;100.00;99301.06;4178219;28;20239;-48
2023/04/09 01:11:56;;;;;;;7.45;6.95;;;;;;;6.82;100.00;99300.63;4178988;28;20304;-47
2023/04/09 01:14:21;;;;;;;6.95;6.35;;;;;;;6.81;100.00;99300.84;4170581;28;20295;-47
2023/04/09 01:16:23;;;;;;;6.60;5.88;;;;;;;6.85;100.00;99299.41;4170251;28;20252;-47
2023/04/09 01:18:30;;;;;;;6.43;5.93;;;;;;;6.78;100.00;99302.13;4170179;28;20200;-47
2023/04/09 01:20:41;;;;;;;7.57;6.97;;;;;;;6.77;100.00;99300.41;4153427;28;20291;-47
2023/04/09 01:22:55;;;;;;;7.22;6.63;;;;;;;6.77;100.00;99297.69;4178634;28;20200;-47
2023/04/09 01:25:14;;;;;;;7.05;5.97;;;;;;;6.77;100.00;99296.88;4167750;28;20224;-47
2023/04/09 01:27:16;;;;;;;6.18;5.22;;;;;;;6.81;100.00;99292.69;4166881;28;20263;-47
2023/04/09 01:29:20;;;;;;;6.75;6.20;;;;;;;6.81;100.00;99298.13;4187317;28;20250;-47
2023/04/09 01:31:30;;;;;;;7.45;6.85;;;;;;;6.79;100.00;99294.78;4171566;28;20708;-47
2023/04/09 01:33:33;;;;;;;7.70;7.20;;;;;;;6.77;100.00;99300.41;4185240;28;20709;-48
2023/04/09 01:35:34;;;;;;;7.18;6.53;;;;;;;6.79;100.00;99294.78;4178810;28;20231;-47
2023/04/09 01:37:36;;;;;;;7.28;6.68;;;;;;;6.78;100.00;99306.72;4161493;28;20240;-47
2023/04/09 01:39:38;;;;;;;8.27;7.68;;;;;;;6.77;100.00;99307.75;4201827;28;20285;-47
2023/04/09 01:41:40;;;;;;;8.65;7.95;;;;;;;6.79;100.00;99305.66;4171056;28;20205;-47
2023/04/09 01:43:42;;;;;;;8.45;7.75;;;;;;;6.77;100.00;99305.03;4171024;28;20324;-47
2023/04/09 01:45:44;;;;;;;8.98;7.47;;;;;;;6.74;100.00;99303.56;4164563;28;20574;-47
2023/04/09 01:47:46;;;;;;;7.65;7.00;;;;;;;6.75;100.00;99302.50;4170120;28;20228;-47
2023/04/09 01:49:48;;;;;;;8.95;8.23;;;;;;;6.75;100.00;99305.22;4171492;28;20624;-47
2023/04/09 01:51:50;;;;;;;11.95;9.15;;;;;;;6.75;100.00;99304.41;4171242;28;20230;-47
2023/04/09 01:53:51;;;;;;;10.88;9.82;;;;;;;6.81;100.00;99306.28;4168157;28;20652;-48
2023/04/09 01:55:57;;;;;;;11.80;10.70;;;;;;;6.78;100.00;99304.00;4177596;28;20246;-47
2023/04/09 01:57:59;;;;;;;11.70;10.70;;;;;;;6.77;100.00;99296.88;4157767;28;20200;-47
2023/04/09 02:00:01;;;;;;;11.18;10.15;;;;;;;6.78;100.00;99293.97;4178449;28;20235;-47
2023/04/09 02:02:11;;;;;;;11.77;10.68;;;;;;;6.78;100.00;99304.00;4171158;28;20219;-47
2023/04/09 02:04:19;;;;;;;11.02;9.98;;;;;;;6.79;100.00;99301.06;4161335;28;20637;-48
2023/04/09 02:06:21;;;;;;;10.48;9.35;;;;;;;6.79;100.00;99301.06;4172417;28;20239;-47
2023/04/09 02:08:23;;;;;;;9.30;8.40;;;;;;;6.79;100.00;99300.22;4170743;28;20275;-47
2023/04/09 02:10:26;;;;;;;9.00;8.13;;;;;;;6.79;100.00;99305.66;4170620;28;20200;-47
2023/04/09 02:12:30;;;;;;;7.88;7.28;;;;;;;6.78;100.00;99304.00;4161026;28;20292;-47
2023/04/09 02:14:33;;;;;;;8.55;7.85;;;;;;;6.79;100.00;99300.22;4177469;28;20204;-48
2023/04/09 02:16:35;;;;;;;7.82;7.13;;;;;;;6.78;100.00;99299.41;4194509;28;20302;-48
2023/04/09 02:18:36;;;;;;;7.45;6.85;;;;;;;6.76;100.00;99295.22;4154905;28;20291;-48
2023/04/09 02:20:38;;;;;;;7.60;5.70;;;;;;;6.84;100.00;99297.72;4194296;28;20740;-48
2023/04/09 02:22:40;;;;;;;6.93;6.43;;;;;;;6.79;100.00;99300.22;4161452;28;20251;-48
2023/04/09 02:24:42;;;;;;;7.47;6.55;;;;;;;6.80;100.00;99310.03;4190016;28;20751;-49
2023/04/09 02:26:43;;;;;;;8.57;6.00;;;;;;;6.81;100.00;99301.69;4172756;28;20229;-50
2023/04/09 02:28:45;;;;;;;6.93;6.35;;;;;;;6.81;100.00;99303.56;4174701;28;20299;-48
2023/04/09 02:30:47;;;;;;;6.75;6.25;;;;;;;6.84;100.00;99303.16;4171300;28;20212;-47
2023/04/09 02:32:49;;;;;;;5.72;5.25;;;;;;;6.83;100.00;99306.94;4177354;28;20212;-49
2023/04/09 02:34:50;;;;;;;6.32;5.82;;;;;;;6.81;100.00;99307.13;4178295;28;20701;-47
2023/04/09 02:36:52;;;;;;;7.15;6.40;;;;;;;6.81;100.00;99303.56;4176812;28;20220;-48
2023/04/09 02:38:54;;;;;;;7.18;6.57;;;;;;;6.86;100.00;99304.63;4176932;28;20214;-48
2023/04/09 02:40:56;;;;;;;6.40;5.90;;;;;;;6.82;100.00;99310.69;4177542;28;20219;-47
2023/04/09 02:42:58;;;;;;;8.27;5.85;;;;;;;6.81;100.00;99303.56;4171719;28;20295;-46
2023/04/09 02:45:00;;;;;;;7.40;6.70;;;;;;;6.85;100.00;99299.41;4175307;28;20809;-48
2023/04/09 02:47:02;;;;;;;5.93;5.43;;;;;;;6.97;100.00;99298.56;4159962;28;20756;-47
2023/04/09 02:49:03;;;;;;;7.13;6.50;;;;;;;6.85;100.00;99300.25;4177688;28;20747;-48
2023/04/09 02:51:05;;;;;;;7.15;6.55;;;;;;;6.89;100.00;99304.22;4175725;28;20235;-48
2023/04/09 02:53:07;;;;;;;6.93;6.32;;;;;;;6.88;100.00;99307.16;4171089;28;20204;-47
2023/04/09 02:55:09;;;;;;;6.30;5.80;;;;;;;6.86;100.00;99306.50;4201756;28;20269;-47
2023/04/09 02:57:11;;;;;;;6.65;6.10;;;;;;;6.90;100.00;99302.34;4161014;28;20315;-47
2023/04/09 02:59:12;;;;;;;6.57;5.97;;;;;;;6.87;100.00;99305.44;4170014;28;20642;-48
2023/04/09 03:01:14;;;;;;;7.85;7.25;;;;;;;6.75;100.00;99304.41;4169273;28;20215;-47
2023/04/09 03:03:16;;;;;;;6.18;5.63;;;;;;;6.74;100.00;99303.56;4155397;28;20639;-47
2023/04/09 03:05:18;;;;;;;6.60;6.07;;;;;;;6.75;100.00;99304.41;4169715;28;20207;-47
2023/04/09 03:07:21;;;;;;;5.88;5.38;;;;;;;6.79;100.00;99300.22;4165202;28;20330;-47
2023/04/09 03:09:23;;;;;;;6.93;6.32;;;;;;;6.83;100.00;99293.34;4177241;28;20242;-47
2023/04/09 03:11:25;;;;;;;6.13;5.72;;;;;;;6.86;100.00;99295.63;4178130;28;20215;-47
2023/04/09 03:13:27;;;;;;;6.32;5.82;;;;;;;6.88;100.00;99293.56;4177835;28;20234;-47
2023/04/09 03:15:28;;;;;;;6.53;6.03;;;;;;;6.70;100.00;99293.31;4193048;28;20250;-47
2023/04/09 03:17:30;;;;;;;6.35;5.88;;;;;;;6.75;100.00;99286.19;4175198;28;20250;-47
2023/04/09 03:19:32;;;;;;;7.22;6.63;;;;;;;6.72;100.00;99288.50;4173798;28;20207;-47
2023/04/09 03:21:34;;;;;;;6.63;6.03;;;;;;;6.87;100.00;99286.41;4167879;28;20235;-47
2023/04/09 03:23:36;;;;;;;7.35;6.75;;;;;;;6.87;100.00;99283.69;4183568;28;20724;-47
2023/04/09 03:25:37;;;;;;;9.68;6.20;;;;;;;6.86;100.00;99282.03;4169026;28;20779;-49
2023/04/09 03:27:39;;;;;;;7.65;6.95;;;;;;;6.88;100.00;99282.69;4166267;28;20228;-47
2023/04/09 03:29:41;;;;;;;6.82;6.32;;;;;;;6.84;100.00;99286.84;4185380;28;20634;-47
2023/04/09 03:31:46;;;;;;;6.63;6.07;;;;;;;6.83;100.00;99279.72;4199726;28;20322;-48
2023/04/09 03:33:48;;;;;;;7.10;6.57;;;;;;;6.81;100.00;99276.34;4169245;28;20282;-47
2023/04/09 03:35:50;;;;;;;7.32;6.72;;;;;;;6.80;100.00;99280.13;4168536;28;20240;-48
2023/04/09 03:37:51;;;;;;;6.30;5.75;;;;;;;6.74;100.00;99273.66;4176670;28;20220;-47
2023/04/09 03:39:53;;;;;;;6.47;5.88;;;;;;;6.74;100.00;99275.50;4170732;28;20295;-47
2023/04/09 03:41:57;;;;;;;7.07;6.47;;;;;;;6.70;100.00;99274.28;4166442;28;20296;-47
2023/04/09 03:43:58;;;;;;;6.85;6.35;;;;;;;6.72;100.00;99272.19;4177233;28;20863;-47
2023/04/09 03:46:00;;;;;;;6.65;6.15;;;;;;;6.66;100.00;99273.00;4175540;28;20235;-47
2023/04/09 03:48:04;;;;;;;6.65;6.05;;;;;;;6.64;100.00;99275.09;4160719;28;20753;-46
2023/04/09 03:50:06;;;;;;;6.65;6.10;;;;;;;6.60;100.00;99273.81;4183797;28;20210;-47
2023/04/09 03:52:08;;;;;;;7.47;6.88;;;;;;;6.58;100.00;99278.63;4172651;28;20674;-47
2023/04/09 03:54:10;;;;;;;6.57;6.05;;;;;;;6.52;100.00;99272.16;4168938;28;20748;-48
2023/04/09 03:56:11;;;;;;;5.50;5.00;;;;;;;6.50;100.00;99273.41;4176548;28;20242;-48
2023/04/09 03:58:13;;;;;;;6.13;5.63;;;;;;;6.50;100.00;99273.41;4168673;28;20578;-47
2023/04/09 04:00:15;;;;;;;6.05;5.55;;;;;;;6.46;100.00;99272.13;4160556;28;20223;-47
2023/04/09 04:02:17;;;;;;;6.72;6.22;;;;;;;6.42;100.00;99276.31;4153620;28;20209;-47
2023/04/09 04:04:19;;;;;;;6.30;5.80;;;;;;;6.42;100.00;99265.44;4155329;28;20252;-47
2023/04/09 04:06:24;;;;;;;7.40;6.80;;;;;;;6.40;100.00;99279.22;4182566;28;20228;-47
2023/04/09 04:08:26;;;;;;;5.85;5.35;;;;;;;6.37;100.00;99274.19;4166724;28;20287;-47
2023/04/09 04:10:27;;;;;;;5.93;5.43;;;;;;;6.35;100.00;99270.84;4159312;28;20208;-47
2023/04/09 04:12:30;;;;;;;6.63;6.03;;;;;;;6.31;100.00;99271.47;4168955;28;20659;-48
2023/04/09 04:14:32;;;;;;;7.63;6.72;;;;;;;6.30;100.00;99277.94;4168531;28;20294;-47
2023/04/09 04:16:34;;;;;;;6.43;5.93;;;;;;;6.24;100.00;99278.75;4168879;28;20247;-47
2023/04/09 04:18:36;;;;;;;7.05;6.50;;;;;;;6.27;100.00;99273.75;4167635;28;20208;-47
2023/04/09 04:20:40;;;;;;;6.70;6.20;;;;;;;6.22;100.00;99275.41;4202870;28;20203;-48
2023/04/09 04:22:42;;;;;;;6.78;6.28;;;;;;;6.26;100.00;99271.22;4174961;28;20238;-48
2023/04/09 04:24:44;;;;;;;6.80;6.30;;;;;;;6.18;100.00;99280.41;4150872;28;20209;-47
2023/04/09 04:26:45;;;;;;;6.53;5.95;;;;;;;6.19;100.00;99279.38;4186609;28;20246;-48
2023/04/09 04:28:47;;;;;;;7.03;6.43;;;;;;;6.17;100.00;99283.34;4155210;28;20219;-47
2023/04/09 04:30:49;;;;;;;6.20;5.72;;;;;;;6.14;100.00;99281.00;4163645;28;20245;-47
2023/04/09 04:32:50;;;;;;;5.68;5.22;;;;;;;6.14;100.00;99278.28;4187480;28;20239;-47
2023/04/09 04:34:52;;;;;;;7.25;6.65;;;;;;;6.06;100.00;99286.63;4157497;28;20210;-47
2023/04/09 04:36:54;;;;;;;6.80;6.30;;;;;;;5.99;100.00;99281.19;4169973;28;20224;-47
2023/04/09 04:38:56;;;;;;;7.70;7.00;;;;;;;6.04;100.00;99277.84;4179292;28;20226;-47
2023/04/09 04:40:58;;;;;;;7.32;6.72;;;;;;;6.02;100.00;99279.94;4170222;28;20590;-47
2023/04/09 04:43:00;;;;;;;6.95;6.35;;;;;;;5.95;100.00;99284.50;4173611;28;20303;-47
2023/04/09 04:45:02;;;;;;;7.70;6.88;;;;;;;5.90;100.00;99281.53;4205290;28;20707;-47
2023/04/09 04:47:03;;;;;;;7.55;6.82;;;;;;;5.91;100.00;99288.66;4173285;28;20673;-47
2023/04/09 04:49:05;;;;;;;6.82;6.22;;;;;;;5.89;100.00;99288.03;4156087;28;20209;-47
2023/04/09 04:51:10;;;;;;;7.75;7.15;;;;;;;5.79;100.00;99282.06;4172505;28;20220;-46
2023/04/09 04:53:12;;;;;;;5.82;5.32;;;;;;;5.74;100.00;99287.25;4170538;28;20562;-47
2023/04/09 04:55:14;;;;;;;6.93;6.22;;;;;;;5.71;100.00;99283.09;4200924;28;20238;-47
2023/04/09 04:57:15;;;;;;;6.50;5.90;;;;;;;5.69;100.00;99284.34;4187801;28;20305;-47
2023/04/09 04:59:17;;;;;;;6.85;6.25;;;;;;;5.62;100.00;99283.47;4190835;28;20246;-48
2023/04/09 05:01:19;;;;;;;6.97;6.35;;;;;;;5.62;100.00;99286.16;4170634;28;20236;-47
2023/04/09 05:03:21;;;;;;;6.88;6.32;;;;;;;5.66;100.00;99284.72;4169892;28;20229;-49
2023/04/09 05:05:25;;;;;;;6.90;6.32;;;;;;;5.53;100.00;99290.06;4157981;28;20205;-46
2023/04/09 05:07:27;;;;;;;7.15;6.55;;;;;;;5.50;100.00;99290.47;4178184;28;20717;-47
2023/04/09 05:09:29;;;;;;;6.30;5.78;;;;;;;5.45;100.00;99292.94;4179733;28;20728;-47
2023/04/09 05:11:31;;;;;;;6.45;5.95;;;;;;;5.44;100.00;99294.81;4171246;28;20216;-47
2023/04/09 05:13:32;;;;;;;6.13;5.63;;;;;;;5.43;100.00;99303.97;4187512;28;20204;-47
2023/04/09 05:15:38;;;;;;;5.90;5.45;;;;;;;5.43;100.00;99298.56;4161165;28;20296;-47
2023/04/09 05:17:43;;;;;;;6.50;5.93;;;;;;;5.43;100.00;99300.44;4174588;28;20225;-47
2023/04/09 05:19:50;;;;;;;7.70;7.10;;;;;;;5.41;100.00;99299.78;4173307;28;20322;-47
2023/04/09 05:21:52;;;;;;;7.25;6.55;;;;;;;5.40;100.00;99295.41;4186515;28;20273;-47
2023/04/09 05:23:53;;;;;;;7.13;6.53;;;;;;;5.46;100.00;99297.31;4158566;28;20332;-47
2023/04/09 05:25:55;;;;;;;7.45;6.32;;;;;;;5.53;100.00;99301.78;4169282;28;20224;-47
2023/04/09 05:27:57;;;;;;;8.00;7.28;;;;;;;5.51;100.00;99292.16;4158106;28;20706;-47
2023/04/09 05:29:59;;;;;;;6.80;6.25;;;;;;;5.53;100.00;99295.50;4189401;28;20273;-47
2023/04/09 05:32:01;;;;;;;7.10;6.53;;;;;;;5.54;100.00;99302.59;4175066;28;20208;-47
2023/04/09 05:34:03;;;;;;;7.13;6.53;;;;;;;5.54;100.00;99305.31;4155954;28;20300;-47
2023/04/09 05:36:05;;;;;;;7.07;6.47;;;;;;;5.55;100.00;99304.28;4175106;28;20251;-49
2023/04/09 05:38:07;;;;;;;6.57;5.97;;;;;;;5.58;100.00;99303.88;4162674;28;20231;-47
2023/04/09 05:40:09;;;;;;;6.65;6.05;;;;;;;5.62;100.00;99310.59;4168617;28;20595;-47
2023/04/09 05:42:11;;;;;;;6.60;6.10;;;;;;;5.74;100.00;99303.56;4171490;28;20680;-46
2023/04/09 05:44:13;;;;;;;9.80;7.70;;;;;;;5.76;100.00;99307.75;4171995;28;20645;-47
2023/04/09 05:46:14;;;;;;;7.65;7.05;;;;;;;5.90;100.00;99314.13;4174099;28;20713;-47
2023/04/09 05:48:17;;;;;;;8.38;7.68;;;;;;;5.87;100.00;99306.38;4176546;28;20785;-47
2023/04/09 05:50:19;;;;;;;8.70;7.90;;;;;;;6.09;100.00;99311.50;4204357;28;20301;-47
2023/04/09 05:52:21;;;;;;;8.75;7.95;;;;;;;6.34;100.00;99317.25;4167246;28;20208;-47
2023/04/09 05:54:23;;;;;;;10.95;10.02;;;;;;;6.60;100.00;99317.31;4178754;28;20228;-47
2023/04/09 05:56:25;;;;;;;12.85;11.75;;;;;;;6.70;100.00;99309.63;4178134;28;20260;-47
2023/04/09 05:58:27;;;;;;;15.52;14.02;;;;;;;6.70;100.00;99317.78;4178711;28;20588;-47
2023/04/09 06:00:29;;;;;;;13.27;12.15;;;;;;;6.69;100.00;99318.84;4170665;28;20208;-47
2023/04/09 06:02:31;;;;;;;11.95;10.85;;;;;;;6.89;100.00;99317.00;4207350;28;20290;-47
2023/04/09 06:04:33;;;;;;;10.70;9.73;;;;;;;6.95;100.00;99310.72;4178106;28;20208;-47
2023/04/09 06:06:36;;;;;;;11.35;10.35;;;;;;;6.96;100.00;99313.22;4153636;28;20221;-46
2023/04/09 06:08:38;;;;;;;8.18;7.47;;;;;;;7.12;100.00;99311.97;4168804;28;20303;-47
2023/04/09 06:10:40;;;;;;;7.32;6.65;;;;;;;7.14;100.00;99320.75;4174917;28;20205;-47
2023/04/09 06:12:42;;;;;;;8.85;8.02;;;;;;;7.25;100.00;99321.00;4178470;28;20287;-47
2023/04/09 06:14:43;;;;;;;8.07;7.38;;;;;;;7.43;100.00;99314.91;4171264;28;20209;-47
2023/04/09 06:16:45;;;;;;;8.95;8.20;;;;;;;7.46;100.00;99315.31;4204062;28;20345;-47
2023/04/09 06:18:49;;;;;;;8.30;7.65;;;;;;;7.92;100.00;99321.53;4169931;28;20645;-47
2023/04/09 06:21:06;;;;;;;9.30;8.02;;;;;;;8.16;100.00;99329.00;4187014;28;20308;-47
2023/04/09 06:23:08;;;;;;;7.53;6.93;;;;;;;8.16;100.00;99328.19;4167687;28;20240;-47
2023/04/09 06:25:09;;;;;;;8.52;7.93;;;;;;;8.29;100.00;99323.53;4170923;28;20299;-47
2023/04/09 06:27:11;;;;;;;8.10;7.40;;;;;;;8.61;100.00;99328.00;4170189;28;20351;-47
2023/04/09 06:29:13;;;;;;;7.82;7.13;;;;;;;8.21;99.76;99325.69;4176418;28;20299;-47
2023/04/09 06:31:15;;;;;;;7.57;6.97;;;;;;;8.64;100.00;99326.72;4172210;28;20244;-47
2023/04/09 06:33:16;;;;;;;9.02;8.32;;;;;;;8.97;97.52;99330.09;4189233;28;20211;-47
2023/04/09 06:35:18;;;;;;;7.32;6.72;;;;;;;9.21;97.43;99332.06;4187183;28;20207;-47
2023/04/09 06:37:20;;;;;;;7.72;7.13;;;;;;;9.30;96.15;99333.44;4170892;28;20224;-46
2023/04/09 06:39:21;;;;;;;8.38;7.68;;;;;;;9.66;95.28;99328.06;4169296;28;20240;-47
2023/04/09 06:41:24;;;;;;;7.53;6.90;;;;;;;10.00;93.59;99333.00;4168746;28;20295;-47
2023/04/09 06:43:25;;;;;;;8.20;7.57;;;;;;;9.62;92.23;99326.88;4177309;28;20266;-47
2023/04/09 06:45:27;;;;;;;8.32;7.30;;;;;;;9.94;92.93;99342.13;4154781;28;20610;-48
2023/04/09 06:47:29;;;;;;;8.30;7.60;;;;;;;9.95;92.75;99328.19;4176766;28;20346;-48
2023/04/09 06:49:30;;;;;;;7.82;6.95;;;;;;;10.40;91.36;99336.97;4204838;28;20285;-46
2023/04/09 06:51:32;;;;;;;8.55;7.85;;;;;;;10.56;88.68;99336.38;4175599;28;20235;-47
2023/04/09 06:53:34;;;;;;;8.18;7.55;;;;;;;10.56;88.99;99336.38;4172013;28;20283;-47
2023/04/09 06:55:36;;;;;;;8.05;7.43;;;;;;;11.28;87.01;99334.28;4170380;28;20204;-47
2023/04/09 06:57:38;;;;;;;7.93;7.22;;;;;;;11.66;84.93;99330.09;4169872;28;20319;-48
2023/04/09 06:59:40;;;;;;;8.48;7.78;;;;;;;11.07;87.04;99337.56;4167633;28;20279;-47
2023/04/09 07:01:41;;;;;;;9.00;8.25;;;;;;;11.05;84.64;99321.34;4177137;28;20216;-47
2023/04/09 07:03:43;;;;;;;8.55;7.88;;;;;;;11.76;83.77;99335.81;4172323;28;20275;-47
2023/04/09 07:05:46;;;;;;;9.52;8.77;;;;;;;11.49;84.08;99323.59;4155326;28;20205;-47
2023/04/09 07:07:47;;;;;;;8.32;7.63;;;;;;;11.79;83.73;99332.63;4160690;28;20266;-47
2023/04/09 07:09:50;;;;;;;9.48;8.57;;;;;;;12.28;80.46;99328.50;4166669;28;20222;-47
2023/04/09 07:11:51;;;;;;;8.95;8.20;;;;;;;11.61;82.28;99332.72;4169990;28;20303;-47
2023/04/09 07:13:55;;;;;;;9.13;8.43;;;;;;;10.96;84.12;99325.50;4170007;28;20239;-47
2023/04/09 07:15:57;;;;;;;10.25;9.35;;;;;;;10.37;85.41;99331.97;4182804;28;20212;-47
2023/04/09 07:17:59;;;;;;;11.00;10.05;;;;;;;10.09;87.31;99328.94;4192999;28;20286;-47
2023/04/09 07:20:01;;;;;;;11.10;10.10;;;;;;;10.05;87.83;99327.72;4176055;28;20243;-47
2023/04/09 07:22:03;;;;;;;11.65;10.65;;;;;;;10.65;86.39;99335.84;4169104;28;20271;-47
2023/04/09 07:24:05;;;;;;;9.45;8.73;;;;;;;10.92;87.23;99327.00;4178882;28;20244;-48
2023/04/09 07:26:07;;;;;;;11.05;10.15;;;;;;;10.53;86.40;99332.19;4172367;28;20292;-47
2023/04/09 07:28:10;;;;;;;10.57;9.68;;;;;;;10.88;85.80;99329.63;4176882;28;20266;-47
2023/04/09 07:30:12;;;;;;;11.00;10.07;;;;;;;11.63;84.96;99322.34;4176011;28;20322;-47
2023/04/09 07:32:14;;;;;;;10.13;9.32;;;;;;;11.75;85.11;99325.94;4169209;28;20239;-47
2023/04/09 07:34:16;;;;;;;10.82;9.82;;;;;;;12.16;82.90;99328.53;4186925;28;20207;-48
2023/04/09 07:36:18;;;;;;;11.27;10.27;;;;;;;11.12;82.37;99324.81;4191412;28;20308;-47
2023/04/09 07:38:19;;;;;;;10.80;9.88;;;;;;;12.32;82.53;99333.31;4168288;28;20211;-48
2023/04/09 07:40:21;;;;;;;11.30;10.10;;;;;;;12.78;80.34;99333.16;4185543;28;20235;-47
2023/04/09 07:42:23;;;;;;;10.63;9.75;;;;;;;13.18;77.24;99333.16;4168365;28;20236;-47
2023/04/09 07:44:25;;;;;;;10.27;9.45;;;;;;;13.84;75.57;99325.75;4177321;28;20616;-48
2023/04/09 07:46:26;;;;;;;9.77;8.85;;;;;;;13.90;73.82;99327.50;4169728;28;20235;-47
2023/04/09 07:48:28;;;;;;;10.43;9.48;;;;;;;13.43;72.17;99334.44;4186339;28;20273;-47
2023/04/09 07:50:30;;;;;;;10.57;9.77;;;;;;;13.52;75.45;99332.97;4169253;28;20286;-47
2023/04/09 07:52:32;;;;;;;10.00;9.20;;;;;;;14.03;73.35;99318.09;4165301;28;20240;-47
2023/04/09 07:54:34;;;;;;;12.20;10.57;;;;;;;14.19;73.98;99320.84;4154850;28;20295;-47
2023/04/09 07:56:35;;;;;;;11.23;10.40;;;;;;;14.55;71.26;99317.47;4177041;28;20314;-47
2023/04/09 07:58:37;;;;;;;11.32;10.43;;;;;;;14.89;70.24;99321.75;4176953;28;20277;-47
2023/04/09 08:00:39;;;;;;;11.00;10.20;;;;;;;13.50;71.65;99326.84;4160524;28;20318;-47
2023/04/09 08:02:42;;;;;;;12.20;10.90;;;;;;;12.85;75.42;99327.53;4155297;28;20291;-47
2023/04/09 08:04:44;;;;;;;11.07;10.20;;;;;;;12.97;76.34;99323.69;4166145;28;20208;-47
2023/04/09 08:06:49;;;;;;;11.82;10.85;;;;;;;13.49;75.57;99322.44;4171063;28;20298;-47
2023/04/09 08:08:52;;;;;;;11.68;10.68;;;;;;;14.32;73.12;99323.25;4173332;28;20677;-47
2023/04/09 08:10:54;;;;;;;11.15;10.25;;;;;;;14.74;71.16;99321.59;4155197;28;20232;-47
2023/04/09 08:12:56;;;;;;;10.40;9.50;;;;;;;14.15;69.56;99322.41;4176381;28;20212;-47
2023/04/09 08:14:57;;;;;;;11.48;10.57;;;;;;;13.49;70.08;99324.38;4201357;28;20253;-48
2023/04/09 08:17:00;;;;;;;12.07;11.07;;;;;;;12.57;72.77;99322.84;4155408;28;20575;-48
2023/04/09 08:19:02;;;;;;;12.93;11.60;;;;;;;14.15;73.07;99322.41;4183231;28;20645;-47
2023/04/09 08:21:04;;;;;;;11.55;10.60;;;;;;;13.19;74.14;99326.56;4175692;28;20207;-47
2023/04/09 08:23:07;;;;;;;11.57;10.68;;;;;;;13.57;73.05;99326.72;4174115;28;20259;-47
2023/04/09 08:25:08;;;;;;;11.32;10.43;;;;;;;13.74;69.80;99325.63;4152244;28;20244;-47
2023/04/09 08:27:10;;;;;;;10.65;9.77;;;;;;;12.67;73.58;99334.03;4186009;28;20340;-47
2023/04/09 08:29:13;;;;;;;12.48;11.35;;;;;;;12.80;74.58;99335.66;4159997;28;20243;-46
2023/04/09 08:31:15;;;;;;;11.85;10.95;;;;;;;14.52;71.40;99329.03;4175648;28;20196;-48
2023/04/09 08:33:17;;;;;;;10.32;9.43;;;;;;;14.04;68.94;99337.09;4170033;28;20275;-48
2023/04/09 08:35:19;;;;;;;10.32;9.43;;;;;;;14.33;70.57;99330.41;4187048;28;20744;-48
2023/04/09 08:37:21;;;;;;;11.40;10.50;;;;;;;14.40;67.86;99328.31;4172691;28;20291;-47
2023/04/09 08:39:22;;;;;;;11.05;10.13;;;;;;;14.43;66.90;99332.47;4176262;28;20215;-47
2023/04/09 08:41:25;;;;;;;11.57;10.55;;;;;;;13.63;67.77;99345.78;4185193;28;20218;-47
2023/04/09 08:43:27;;;;;;;11.60;10.70;;;;;;;14.67;69.17;99342.97;4164791;28;20653;-49
2023/04/09 08:45:49;;;;;;;10.35;9.55;;;;;;;14.02;65.14;99333.75;4171789;28;20234;-47
2023/04/09 08:47:51;;;;;;;8.18;7.47;;;;;;;13.32;65.01;99349.09;4185638;28;20313;-48
2023/04/09 08:49:53;;;;;;;8.60;7.85;;;;;;;13.09;63.69;99349.19;4176715;28;20307;-47
2023/04/09 08:51:55;;;;;;;9.25;8.55;;;;;;;13.45;63.87;99348.78;4165183;28;20232;-47
2023/04/09 08:53:58;;;;;;;8.95;8.25;;;;;;;14.08;64.87;99342.91;4167235;28;20767;-47
2023/04/09 08:56:04;;;;;;;7.93;7.22;;;;;;;14.26;62.25;99335.25;4159946;28;20615;-47
2023/04/09 08:58:06;;;;;;;7.82;7.22;;;;;;;14.61;63.25;99337.66;4169331;28;20205;-47
2023/04/09 09:00:09;;;;;;;8.27;7.57;;;;;;;14.05;61.74;99344.28;4175009;28;20238;-46
2023/04/09 09:02:10;;;;;;;8.70;8.00;;;;;;;14.19;62.37;99333.78;4169173;28;20212;-47
2023/04/09 09:04:13;;;;;;;8.38;7.68;;;;;;;13.80;64.37;99343.88;4170233;28;20223;-47
2023/04/09 09:06:27;;;;;;;8.43;7.72;;;;;;;13.82;65.19;99338.09;4176241;28;20754;-47
2023/04/09 09:08:29;;;;;;;7.78;7.18;;;;;;;14.50;65.36;99339.44;4169040;28;20216;-46
2023/04/09 09:10:44;;;;;;;7.57;6.97;;;;;;;13.95;63.43;99343.25;4176485;28;20330;-47
2023/04/09 09:12:46;;;;;;;7.15;6.55;;;;;;;14.40;62.60;99342.06;4200259;28;20290;-46
2023/04/09 09:14:48;;;;;;;6.57;6.03;;;;;;;13.70;60.23;99346.44;4169835;28;20701;-47
2023/04/09 09:16:56;;;;;;;6.38;5.88;;;;;;;14.01;61.63;99343.09;4162518;28;20775;-47
2023/04/09 09:18:58;;;;;;;8.82;7.45;;;;;;;14.64;65.88;99337.97;4171503;28;20246;-47
2023/04/09 09:21:14;;;;;;;6.80;6.28;;;;;;;14.80;59.82;99342.59;4168472;28;20204;-47
2023/04/09 09:23:16;;;;;;;7.63;6.70;;;;;;;14.61;58.85;99330.22;4183220;28;20714;-47
2023/04/09 09:25:21;;;;;;;6.03;5.53;;;;;;;15.06;60.58;99333.53;4190840;28;20290;-47
2023/04/09 09:27:35;;;;;;;6.72;6.18;;;;;;;14.93;57.70;99333.94;4178206;28;20221;-46
2023/04/09 09:29:41;;;;;;;6.35;5.85;;;;;;;15.21;58.44;99328.19;4171059;28;20233;-47
2023/04/09 09:31:50;;;;;;;7.03;6.43;;;;;;;16.11;59.87;99328.16;4167450;28;20310;-49
2023/04/09 09:33:53;;;;;;;7.25;6.68;;;;;;;15.66;58.77;99320.38;4170956;28;20219;-47
2023/04/09 09:35:56;;;;;;;5.60;5.20;;;;;;;15.54;53.14;99321.63;4170088;28;20702;-47
2023/04/09 09:38:03;;;;;;;5.03;4.63;;;;;;;15.89;53.72;99325.50;4167947;28;20224;-47